메인 페이지
METAR-TAF:

METAR-TAF

공항 :

진나 국제공항

카라치, 파키스탄

위도: 24-54N, 경도: 067-08E, 고도: 21m

현재 날씨관측

예보는 37분 전, 11:25시(UTC)에 발표되었습니다.
10kt
온도 24°C
습도 54%
기압 1014 hPa
시정: 3000m
연무

METAR: OPKC 201125Z 26010KT 3000 HZ NSC 24/14 Q1014 NOSIG

시각: 17:02 (12:02 UTC)

예보

예보는 2 시간 2분 전, 10:00시(UTC)에 발표되었습니다.
예보 대상 시간: 20일 12시부터 21일 18시까지 (UTC)
5kt, 순간 최대 풍속 15kt
시정: 5000m
고도 3000ft 상공 구름 보통
고도 10000ft 상공 구름 많음
연무
20일 1600시부터 (UTC)
북북동5kt, 순간 최대 풍속 15kt
시정: 2000m
고도 2500ft 상공 구름 조금, 적란운.
고도 3000ft 상공 구름 많음
고도 10000ft 상공 흐림
뇌우, 비
일시적
21일 01시부터 21일 05시까지 (UTC)
7kt
시정: 3000m
고도 2000ft 상공 구름 보통
고도 10000ft 상공 구름 많음
연무
일시적
21일 07시부터 21일 11시까지 (UTC)
북북동5kt, 순간 최대 풍속 15kt
시정: 2000m
고도 2500ft 상공 구름 조금, 적란운.
고도 3000ft 상공 구름 많음
고도 10000ft 상공 흐림
뇌우, 비
21일 1200시부터 (UTC)
10kt
시정: 6000m

TAF: OPKC 201000Z 2012/2118 27005G15KT 5000 HZ SCT030 BKN100 FM201600 03005G15KT 2000 TSRA FEW025CB BKN030 OVC100 TEMPO 2101/2105 09007KT 3000 HZ SCT020 BKN100 TEMPO 2107/2111 03005G15KT 2000 TSRA FEW025CB BKN030 OVC100 FM211200 27010KT 6000 NSC

4,000개 이상의 공항 관측 자료 및 예보 (METAR 및 TAF 보고).

지도상에서 검색 가능한 기상관측소가 노란 점과 빨간 점으로 표시되어 있습니다.

기상관측소 명을 보려면 표시 위로 마우스를 이동하세요.

날씨 관측과 예보를 보려면 클릭하세요.

지도 변경 : 확대하려면 엑스 표시가 있는 녹색 버튼, 축소하려면 빼기 표시가 있는 녹색 버튼, 다음 페이지의 지도를 보려면 녹색 화살표를 클릭하세요.


METAR-TAF: